Oloh, Mississippi
Current Conditions -  °F | °C
As of 4:15 PM on Saturday 20 Dec 2014 (Local Time) from KPIB Reporting Station
Overcast Overcast  
Wind Chill: 52°   Ceiling: 1700
Heat Index: 52°   Visibility: 10mi
Dew Point: 43°   Wind: 12mph
Humidity: 71%   Direction: 30°NNE
Pressure: 30.15"   Gusts: 16mph
Location:  31.3235°N, 89.5695°W
Report Text: KPIB 202215Z AUTO 03010G14KT 10SM OVC017 11/06 A3015 RMK AO1
Loading
Personal Weather Stations






























Interactive Weather Map New forecast layout! Learn more

10-Day Weather Forecast

Advertisements
Track Severe Weather on mobile